San Juan Island, Washington
Current Conditions -  °F | °C
As of 11:53 AM on Friday 24 Oct 2014 (Local Time) from KFHR Reporting Station
Clear Clear  
Wind Chill: 53°   Ceiling: Unl
Heat Index: 53°   Visibility: 10mi
Dew Point: 45°   Wind: 5mph
Humidity: 74%   Direction: 40°NE
Pressure: 30.05"   Gusts: NA
Location:  48.5377°N, 123.083°W
Report Text: KFHR 241853Z AUTO 04004KT 10SM CLR 12/07 A3005 RMK AO2 SLP177 T01170072
Loading
Personal Weather Stations






























Interactive Weather Map
Tropical Storm Tracking
New forecast layout! Learn more

10-Day Weather Forecast

Advertisements
Track Severe Weather on mobile